SUT weather

Brunswick County Airport
Oak Island, North Carolina, United States

Public forecast

Using degrees Fahrenheit for public forecast. Weather courtesy of forecast.io.

METAR (pilot weather report)

Retrieved 2019/04/22 06:20 UTC (0 seconds ago):

KSUT 220620Z AUTO 27004KT 10SM CLR 11/06 A3012 RMK AO2 T01130058

TAF (pilot weather forecast)

Closest forecast is Wilmington International Airport, 22.2 nm (41.1 km) NNE. Retrieved 2019/04/22 06:42 UTC (0 seconds ago):

TAF KILM 220538Z 2206/2306 29006KT P6SM SKC FM222000 22009KT P6SM SKC FM230000 24003KT P6SM SKC